Time;durP1;ratioP1;P1;durP2;ratioP2;P2;SDS_P1;SDS_P2;PMS_P1;PMS_P2;Temp;Humidity;BMP_temperature;BMP_pressure;BME280_temperature;BME280_humidity;BME280_pressure;Samples;Min_cycle;Max_cycle;Signal;HPM_P1;HPM_P2
2022/02/15 00:00:33;;;;;;;15.30;5.15;;;;;;;5.11;87.40;100122.72;5008703;28;20125;-82
2022/02/15 00:03:00;;;;;;;14.57;5.05;;;;;;;5.14;87.17;100132.00;5008355;28;20094;-82
2022/02/15 00:05:27;;;;;;;15.00;4.28;;;;;;;5.19;87.30;100129.84;5016743;28;20109;-83
2022/02/15 00:07:54;;;;;;;9.43;4.70;;;;;;;4.94;87.64;100126.75;5035359;28;20052;-81
2022/02/15 00:10:22;;;;;;;11.35;4.75;;;;;;;4.97;87.36;100129.09;5021916;28;20077;-82
2022/02/15 00:12:48;;;;;;;10.57;4.68;;;;;;;4.85;87.84;100127.56;5019492;28;20105;-84
2022/02/15 00:15:15;;;;;;;8.38;4.90;;;;;;;4.74;89.08;100121.63;5064620;22;20065;-83
2022/02/15 00:17:42;;;;;;;10.75;4.85;;;;;;;4.71;89.29;100119.34;5059464;28;20053;-82
2022/02/15 00:20:12;;;;;;;14.18;5.60;;;;;;;4.68;88.86;100127.38;5059136;28;20103;-83
2022/02/15 00:22:39;;;;;;;13.40;5.20;;;;;;;4.71;89.42;100129.69;5058707;28;20540;-81
2022/02/15 00:25:07;;;;;;;12.80;4.97;;;;;;;4.77;89.46;100129.16;5057463;28;20080;-82
2022/02/15 00:27:35;;;;;;;17.20;4.85;;;;;;;4.77;88.93;100113.59;5058827;28;20511;-83
2022/02/15 00:30:02;;;;;;;12.15;5.53;;;;;;;4.79;89.05;100128.06;5059619;28;20503;-82
2022/02/15 00:32:28;;;;;;;11.32;4.45;;;;;;;4.81;89.34;100126.16;5060619;28;20180;-83
2022/02/15 00:34:55;;;;;;;12.60;4.78;;;;;;;4.81;89.26;100128.75;5060169;28;20080;-84
2022/02/15 00:37:22;;;;;;;11.88;5.20;;;;;;;4.80;88.94;100128.88;5058798;28;20151;-84
2022/02/15 00:39:48;;;;;;;10.65;4.53;;;;;;;4.78;89.09;100126.44;5059632;28;20076;-83
2022/02/15 00:42:15;;;;;;;12.25;5.05;;;;;;;4.89;89.49;100125.53;5059429;28;20049;-83
2022/02/15 00:44:43;;;;;;;11.35;4.70;;;;;;;4.97;89.37;100136.88;5059491;28;20076;-83
2022/02/15 00:47:10;;;;;;;10.35;5.18;;;;;;;4.91;89.08;100119.25;5059382;28;20080;-83
2022/02/15 00:49:36;;;;;;;9.40;4.88;;;;;;;4.96;88.75;100135.22;5058782;28;20065;-83
2022/02/15 00:52:04;;;;;;;11.13;4.90;;;;;;;5.03;88.44;100150.25;5058482;28;20434;-82
2022/02/15 00:54:30;;;;;;;11.55;4.85;;;;;;;5.02;88.79;100144.25;5057240;28;20419;-81
2022/02/15 00:56:57;;;;;;;13.30;4.57;;;;;;;5.02;88.94;100159.81;5057385;28;20052;-82
2022/02/15 00:59:23;;;;;;;13.20;4.50;;;;;;;5.04;89.29;100151.91;5056805;28;20087;-81
2022/02/15 01:01:51;;;;;;;12.32;5.13;;;;;;;5.12;88.73;100152.06;5057323;28;20506;-82
2022/02/15 01:04:18;;;;;;;10.27;5.20;;;;;;;5.16;88.37;100153.44;5057662;28;20512;-80
2022/02/15 01:06:45;;;;;;;10.20;5.03;;;;;;;5.19;88.50;100151.41;5059989;28;20109;-82
2022/02/15 01:09:11;;;;;;;8.50;5.00;;;;;;;5.30;88.93;100153.03;5062551;28;20076;-83
2022/02/15 01:11:38;;;;;;;10.60;5.15;;;;;;;5.29;88.68;100165.19;5064723;28;20117;-80
2022/02/15 01:14:05;;;;;;;12.25;5.22;;;;;;;5.29;89.02;100165.19;5062825;28;20049;-81
2022/02/15 01:16:32;;;;;;;7.97;4.50;;;;;;;5.28;89.15;100158.38;5061132;28;20063;-82
2022/02/15 01:19:00;;;;;;;9.43;5.15;;;;;;;5.27;88.51;100158.50;5060227;28;20083;-81
2022/02/15 01:21:26;;;;;;;9.80;5.50;;;;;;;5.18;88.96;100151.53;5060669;28;20085;-82
2022/02/15 01:23:53;;;;;;;12.40;5.35;;;;;;;5.28;88.95;100167.94;5060410;28;20080;-82
2022/02/15 01:26:20;;;;;;;11.48;5.22;;;;;;;5.28;89.09;100170.53;5060236;28;20049;-83
2022/02/15 01:28:46;;;;;;;10.73;5.03;;;;;;;5.29;88.88;100177.34;5060098;28;20068;-83
2022/02/15 01:31:13;;;;;;;9.90;4.82;;;;;;;5.25;89.48;100165.59;5059995;28;20092;-83
2022/02/15 01:33:40;;;;;;;12.43;6.47;;;;;;;5.33;89.78;100178.72;5060213;28;20108;-81
2022/02/15 01:36:08;;;;;;;10.75;5.72;;;;;;;5.39;89.28;100167.81;5059821;28;20059;-83
2022/02/15 01:38:34;;;;;;;11.32;5.50;;;;;;;5.37;89.54;100164.53;5059302;28;20087;-83
2022/02/15 01:41:02;;;;;;;14.20;5.13;;;;;;;5.44;89.19;100168.25;5060312;28;20550;-83
2022/02/15 01:43:28;;;;;;;15.38;5.85;;;;;;;5.48;89.38;100173.97;5060100;28;20056;-82
2022/02/15 01:45:55;;;;;;;14.18;7.70;;;;;;;5.83;88.16;100170.84;5059631;28;20140;-83
2022/02/15 01:48:21;;;;;;;20.67;9.77;;;;;;;5.98;87.71;100177.31;5059964;28;20073;-84
2022/02/15 01:50:48;;;;;;;18.13;10.02;;;;;;;6.00;87.88;100167.59;5061838;28;20136;-83
2022/02/15 01:53:16;;;;;;;19.35;10.20;;;;;;;6.10;87.52;100171.03;5063587;28;20072;-84
2022/02/15 01:55:43;;;;;;;18.45;10.40;;;;;;;6.11;87.68;100169.25;5062802;28;20084;-84
2022/02/15 01:58:13;;;;;;;16.00;10.10;;;;;;;6.20;87.89;100174.41;5065194;28;20096;-84
2022/02/15 02:00:40;;;;;;;21.58;10.15;;;;;;;6.28;87.39;100182.34;5061755;28;20087;-83
2022/02/15 02:03:06;;;;;;;15.73;9.70;;;;;;;6.34;87.02;100180.97;5060755;28;20080;-82
2022/02/15 02:05:47;;;;;;;14.00;9.02;;;;;;;6.35;86.63;100182.59;5061634;28;20123;-82
2022/02/15 02:08:16;;;;;;;14.60;8.82;;;;;;;6.35;86.68;100189.56;5060524;28;20049;-83
2022/02/15 02:10:42;;;;;;;14.27;8.35;;;;;;;6.34;86.52;100188.75;5060520;28;20045;-83
2022/02/15 02:13:09;;;;;;;14.10;8.10;;;;;;;6.36;86.76;100183.41;5061399;28;20063;-83
2022/02/15 02:15:36;;;;;;;19.25;8.60;;;;;;;6.22;87.17;100172.50;5061303;28;20048;-83
2022/02/15 02:18:03;;;;;;;14.65;8.18;;;;;;;6.16;86.94;100172.22;5060820;28;20140;-82
2022/02/15 02:20:29;;;;;;;17.65;8.13;;;;;;;6.40;86.72;100196.00;5059688;28;20084;-81
2022/02/15 02:22:57;;;;;;;13.07;6.80;;;;;;;6.40;85.99;100195.19;5061153;28;20085;-79
2022/02/15 02:25:25;;;;;;;14.65;7.28;;;;;;;6.45;85.50;100192.97;5068221;28;20040;-80
2022/02/15 02:27:52;;;;;;;13.73;7.63;;;;;;;6.42;85.63;100188.88;5068413;28;20155;-80
2022/02/15 02:30:19;;;;;;;14.88;7.55;;;;;;;6.31;85.96;100181.22;5065561;28;20071;-81
2022/02/15 02:32:46;;;;;;;12.27;7.20;;;;;;;6.29;86.26;100178.78;5061335;28;20404;-82
2022/02/15 02:35:13;;;;;;;13.13;6.90;;;;;;;6.40;85.65;100192.56;5061992;28;20120;-81
2022/02/15 02:37:40;;;;;;;13.25;6.72;;;;;;;6.39;85.96;100198.72;5062728;28;20544;-81
2022/02/15 02:40:10;;;;;;;14.25;6.68;;;;;;;6.31;86.52;100183.84;5061319;28;20045;-81
2022/02/15 02:42:38;;;;;;;13.55;7.43;;;;;;;6.37;86.05;100206.66;5060943;28;20044;-81
2022/02/15 02:45:08;;;;;;;14.70;6.68;;;;;;;6.33;85.76;100200.94;5062554;28;20053;-83
2022/02/15 02:47:35;;;;;;;18.17;7.05;;;;;;;6.42;85.63;100206.25;5064690;28;20076;-83
2022/02/15 02:50:02;;;;;;;12.80;6.57;;;;;;;6.40;85.15;100208.16;5065967;28;20056;-85
2022/02/15 02:52:29;;;;;;;11.55;6.65;;;;;;;6.44;85.93;100225.13;5063171;28;20045;-82
2022/02/15 02:54:57;;;;;;;14.05;6.43;;;;;;;6.40;85.82;100216.78;5062030;28;20044;-82
2022/02/15 02:57:25;;;;;;;15.88;6.45;;;;;;;6.38;86.00;100230.88;5063789;28;20045;-81
2022/02/15 02:59:52;;;;;;;15.40;6.47;;;;;;;6.43;86.00;100220.88;5062904;28;20088;-81
2022/02/15 03:02:19;;;;;;;10.73;6.07;;;;;;;6.38;85.72;100217.88;5063180;28;20421;-80
2022/02/15 03:04:47;;;;;;;12.40;6.82;;;;;;;6.29;86.43;100227.31;5069240;28;20052;-82
2022/02/15 03:07:14;;;;;;;11.35;6.45;;;;;;;6.40;86.34;100226.34;5069835;28;20132;-83
2022/02/15 03:09:41;;;;;;;18.05;6.82;;;;;;;6.29;86.37;100241.13;5072999;28;20045;-81
2022/02/15 03:12:10;;;;;;;17.55;6.47;;;;;;;6.29;85.96;100238.53;5070963;28;20251;-81
2022/02/15 03:14:38;;;;;;;16.02;7.03;;;;;;;6.26;86.60;100241.41;5070281;28;20500;-81
2022/02/15 03:17:05;;;;;;;16.63;6.70;;;;;;;6.28;86.34;100241.28;5070581;28;20076;-81
2022/02/15 03:19:31;;;;;;;11.48;6.60;;;;;;;6.24;86.38;100242.50;5062420;28;20080;-80
2022/02/15 03:21:59;;;;;;;14.27;6.80;;;;;;;6.28;86.60;100234.28;5067197;28;20547;-80
2022/02/15 03:24:25;;;;;;;12.80;7.07;;;;;;;6.22;86.41;100229.66;5071401;28;20071;-81
2022/02/15 03:26:52;;;;;;;14.60;7.20;;;;;;;6.17;86.50;100237.03;5065715;28;20549;-82
2022/02/15 03:29:19;;;;;;;12.88;6.78;;;;;;;6.22;86.42;100241.81;5058393;28;20131;-83
2022/02/15 03:31:47;;;;;;;14.68;6.65;;;;;;;6.27;86.67;100245.66;5059545;28;20041;-84
2022/02/15 03:34:14;;;;;;;10.18;6.60;;;;;;;6.15;86.36;100236.34;5060778;28;20091;-84
2022/02/15 03:36:41;;;;;;;12.32;6.72;;;;;;;6.25;86.51;100247.56;5060164;28;20060;-84
2022/02/15 03:39:10;;;;;;;15.25;7.03;;;;;;;6.24;86.98;100245.91;5060413;28;20040;-84
2022/02/15 03:44:21;;;;;;;13.63;6.43;;;;;;;6.16;86.93;100250.97;5060310;28;20071;-83
2022/02/15 03:46:50;;;;;;;10.85;6.30;;;;;;;6.22;87.00;100255.63;5058683;28;20049;-83
2022/02/15 03:49:17;;;;;;;11.30;6.43;;;;;;;6.17;86.95;100263.00;5057575;28;20136;-83
2022/02/15 03:51:44;;;;;;;12.88;7.20;;;;;;;6.12;87.31;100262.63;5058848;28;20074;-83
2022/02/15 03:54:11;;;;;;;12.40;6.88;;;;;;;6.10;87.20;100263.72;5059163;28;20104;-83
2022/02/15 03:56:38;;;;;;;12.75;7.30;;;;;;;6.14;87.45;100265.91;5058747;28;20076;-83
2022/02/15 03:59:06;;;;;;;12.50;7.05;;;;;;;6.10;87.47;100272.34;5057968;28;20076;-84
2022/02/15 04:01:33;;;;;;;12.50;7.63;;;;;;;6.01;87.97;100270.53;5058551;28;20088;-81
2022/02/15 04:04:01;;;;;;;15.10;8.40;;;;;;;6.01;87.82;100288.72;5059743;28;20065;-83
2022/02/15 04:06:28;;;;;;;14.25;8.15;;;;;;;5.99;87.67;100270.69;5060158;28;20064;-83
2022/02/15 04:08:54;;;;;;;13.52;8.93;;;;;;;5.97;88.62;100282.16;5060085;28;20044;-84
2022/02/15 04:11:21;;;;;;;16.33;8.70;;;;;;;6.00;87.85;100287.09;5063388;28;20068;-84
2022/02/15 04:13:47;;;;;;;13.15;8.68;;;;;;;5.96;88.70;100285.72;5063203;28;20048;-83
2022/02/15 04:16:26;;;;;;;14.95;8.38;;;;;;;5.81;88.91;100281.81;5059338;28;20045;-84
2022/02/15 04:19:03;;;;;;;16.15;8.75;;;;;;;5.65;88.49;100267.59;5060229;28;20053;-83
2022/02/15 04:21:34;;;;;;;17.10;8.73;;;;;;;5.72;88.88;100300.78;5059379;28;20049;-83
2022/02/15 04:24:01;;;;;;;18.02;8.82;;;;;;;5.62;89.43;100283.44;5058241;28;20102;-81
2022/02/15 04:26:27;;;;;;;13.25;8.82;;;;;;;5.51;89.35;100286.13;5059280;28;20507;-84
2022/02/15 04:28:54;;;;;;;26.67;9.77;;;;;;;5.34;90.25;100284.16;5060786;28;20124;-83
2022/02/15 04:31:21;;;;;;;16.73;9.65;;;;;;;5.39;90.33;100302.75;5060602;28;20057;-84
2022/02/15 04:33:48;;;;;;;16.90;9.98;;;;;;;5.29;91.25;100307.06;5066466;28;20049;-83
2022/02/15 04:36:15;;;;;;;16.30;9.65;;;;;;;5.07;91.06;100287.31;5062721;28;20099;-83
2022/02/15 04:38:43;;;;;;;14.15;10.15;;;;;;;5.12;91.49;100316.28;5063218;28;20317;-83
2022/02/15 04:41:09;;;;;;;17.15;10.02;;;;;;;5.12;91.78;100320.66;5066103;28;20045;-85
2022/02/15 04:43:36;;;;;;;19.48;10.82;;;;;;;5.21;91.78;100325.03;5069736;28;20076;-81
2022/02/15 04:46:03;;;;;;;18.02;10.25;;;;;;;5.18;91.43;100335.69;5072190;28;20147;-82
2022/02/15 04:48:31;;;;;;;14.13;9.20;;;;;;;5.15;91.51;100335.97;5071661;28;20091;-84
2022/02/15 04:51:02;;;;;;;15.15;10.05;;;;;;;5.12;91.68;100333.63;5073249;28;20105;-85
2022/02/15 04:53:37;;;;;;;15.85;10.02;;;;;;;5.17;91.46;100341.84;5078621;28;20049;-84
2022/02/15 04:56:13;;;;;;;20.10;9.98;;;;;;;5.12;91.90;100344.00;5078580;28;20063;-84
2022/02/15 04:58:54;;;;;;;15.57;9.98;;;;;;;5.16;91.71;100348.78;5078770;28;20087;-83
2022/02/15 05:01:32;;;;;;;20.50;9.93;;;;;;;5.23;91.93;100354.28;5077162;28;20069;-83
2022/02/15 05:04:03;;;;;;;20.42;10.40;;;;;;;5.16;91.83;100337.59;5063862;28;20045;-85
2022/02/15 05:06:29;;;;;;;15.98;10.55;;;;;;;5.29;91.48;100367.56;5068172;28;20053;-83
2022/02/15 05:08:56;;;;;;;17.33;10.40;;;;;;;5.31;91.59;100370.84;5069050;28;20063;-83
2022/02/15 05:11:24;;;;;;;16.65;9.70;;;;;;;5.27;91.66;100382.41;5068612;28;20049;-85
2022/02/15 05:13:51;;;;;;;17.23;10.57;;;;;;;5.17;91.57;100360.00;5069097;28;20044;-84
2022/02/15 05:16:18;;;;;;;16.60;10.23;;;;;;;5.12;92.06;100362.97;5068943;28;20057;-84
2022/02/15 05:18:45;;;;;;;16.52;10.95;;;;;;;5.24;92.38;100381.84;5068727;28;20087;-85
2022/02/15 05:21:12;;;;;;;21.38;10.60;;;;;;;5.24;92.12;100381.84;5068903;28;20095;-83
2022/02/15 05:23:43;;;;;;;17.45;10.25;;;;;;;5.21;92.17;100363.94;5069891;28;20053;-84
2022/02/15 05:26:09;;;;;;;22.75;11.25;;;;;;;5.29;92.14;100371.91;5070526;28;20104;-84
2022/02/15 05:28:38;;;;;;;17.15;10.35;;;;;;;5.35;91.90;100379.19;5068017;28;20114;-84
2022/02/15 05:31:04;;;;;;;17.33;10.88;;;;;;;5.39;91.44;100375.38;5070646;28;20049;-83
2022/02/15 05:33:31;;;;;;;18.27;10.82;;;;;;;5.45;91.13;100384.44;5070436;28;20061;-82
2022/02/15 05:35:58;;;;;;;16.60;10.40;;;;;;;5.34;91.61;100372.34;5069448;28;20060;-82
2022/02/15 05:38:24;;;;;;;17.80;10.90;;;;;;;5.44;91.71;100383.63;5071087;28;20048;-83
2022/02/15 05:40:51;;;;;;;18.33;10.63;;;;;;;5.47;91.27;100388.53;5075697;28;20053;-83
2022/02/15 05:43:18;;;;;;;19.30;10.98;;;;;;;5.51;91.48;100394.31;5073264;28;20076;-84
2022/02/15 05:45:46;;;;;;;21.08;11.00;;;;;;;5.53;91.29;100387.22;5072998;28;20045;-84
2022/02/15 05:48:13;;;;;;;17.55;10.63;;;;;;;5.48;91.07;100382.41;5073056;28;20052;-84
2022/02/15 05:50:52;;;;;;;18.95;11.18;;;;;;;5.59;91.06;100389.28;5072660;28;20394;-83
2022/02/15 05:53:20;;;;;;;20.73;11.00;;;;;;;5.49;91.21;100399.63;5067360;28;20070;-82
2022/02/15 05:55:48;;;;;;;21.00;11.50;;;;;;;5.49;91.33;100388.41;5068868;28;20079;-84
2022/02/15 05:58:15;;;;;;;17.50;11.82;;;;;;;5.53;91.44;100402.78;5064034;28;20053;-84
2022/02/15 06:00:42;;;;;;;18.63;11.55;;;;;;;5.59;91.79;100403.09;5064027;28;20055;-83
2022/02/15 06:05:51;;;;;;;13.73;9.23;;;;;;;5.51;91.55;100400.31;5062746;28;20456;-84
2022/02/15 06:08:18;;;;;;;13.23;7.57;;;;;;;5.42;91.96;100406.28;5065635;28;20044;-82
2022/02/15 06:10:46;;;;;;;11.55;6.75;;;;;;;5.37;91.23;100405.00;5062928;28;20196;-83
2022/02/15 06:13:13;;;;;;;12.63;6.57;;;;;;;5.29;91.67;100395.25;5062710;28;20045;-83
2022/02/15 06:18:10;;;;;;;9.13;7.30;;;;;;;5.33;91.62;100409.63;5056108;28;20076;-85
2022/02/15 06:20:49;;;;;;;9.48;6.47;;;;;;;5.22;91.18;100381.16;5057502;28;20403;-87
2022/02/15 06:23:15;;;;;;;9.77;6.07;;;;;;;5.23;91.40;100400.97;5056234;28;20147;-85
2022/02/15 06:25:42;;;;;;;9.98;6.05;;;;;;;5.24;91.48;100407.78;5060830;28;20057;-84
2022/02/15 06:28:09;;;;;;;12.45;7.28;;;;;;;5.34;92.07;100427.66;5055230;28;20455;-85
2022/02/15 06:30:35;;;;;;;12.27;8.02;;;;;;;5.37;91.64;100429.19;5055263;28;20490;-84
2022/02/15 06:33:02;;;;;;;15.40;7.88;;;;;;;5.43;91.98;100435.63;5055535;28;20137;-86
2022/02/15 06:35:30;;;;;;;14.23;9.10;;;;;;;5.44;92.39;100443.28;5054931;28;20385;-86
2022/02/15 06:37:57;;;;;;;16.27;9.05;;;;;;;5.28;92.76;100429.94;5055488;28;20098;-85
2022/02/15 06:40:24;;;;;;;13.55;9.02;;;;;;;5.35;93.56;100438.88;5058509;28;20049;-86
2022/02/15 06:42:57;;;;;;;17.30;10.10;;;;;;;5.23;93.67;100443.28;5061287;28;20067;-86
2022/02/15 06:45:25;;;;;;;;;;;;;;;5.34;94.00;100457.97;5045917;28;20121;-87
2022/02/15 06:47:52;;;;;;;14.55;9.82;;;;;;;5.28;94.21;100466.25;5058960;28;20023;-82
2022/02/15 06:50:19;;;;;;;18.52;10.65;;;;;;;5.25;94.58;100459.56;5062074;28;20049;-83
2022/02/15 06:52:47;;;;;;;15.45;9.23;;;;;;;5.25;94.99;100474.28;5061164;28;20083;-83
2022/02/15 06:55:13;;;;;;;14.82;9.68;;;;;;;5.26;94.66;100470.75;5034390;28;20049;-83
2022/02/15 06:57:40;;;;;;;25.23;15.27;;;;;;;5.25;94.90;100477.72;5042808;28;20128;-84
2022/02/15 07:00:08;;;;;;;22.88;14.48;;;;;;;5.24;95.02;100477.84;5043363;28;20083;-85
2022/02/15 07:02:34;;;;;;;21.90;12.15;;;;;;;5.21;95.02;100476.31;5043648;28;20045;-85
2022/02/15 07:05:10;;;;;;;23.13;15.55;;;;;;;5.25;95.22;100484.66;5039025;28;20458;-86
2022/02/15 07:07:37;;;;;;;23.73;13.25;;;;;;;5.25;95.58;100479.47;5038278;28;20053;-86
2022/02/15 07:10:12;;;;;;;25.60;13.65;;;;;;;5.35;95.29;100482.97;5037513;28;20099;-86
2022/02/15 07:12:42;;;;;;;20.45;13.88;;;;;;;5.25;95.13;100471.69;5035935;28;20055;-86
2022/02/15 07:15:10;;;;;;;28.13;14.65;;;;;;;5.38;95.41;100498.28;5045060;28;20131;-86
2022/02/15 07:17:37;;;;;;;34.22;20.55;;;;;;;5.42;95.17;100489.31;5056834;28;20423;-85
2022/02/15 07:20:06;;;;;;;26.50;16.25;;;;;;;5.53;94.83;100476.28;5055056;28;20124;-86
2022/02/15 07:22:33;;;;;;;28.20;15.57;;;;;;;5.52;94.58;100484.19;5054899;28;20526;-86
2022/02/15 07:24:59;;;;;;;28.58;16.33;;;;;;;5.66;94.58;100500.28;5044415;28;20045;-86
2022/02/15 07:27:29;;;;;;;26.27;16.08;;;;;;;5.50;94.08;100476.53;5034198;28;20172;-86
2022/02/15 07:29:56;;;;;;;27.50;16.20;;;;;;;5.54;94.69;100493.50;5032299;28;20131;-87
2022/02/15 07:32:25;;;;;;;29.88;15.82;;;;;;;5.63;94.62;100512.69;5033745;28;20443;-87
2022/02/15 07:34:52;;;;;;;31.85;16.85;;;;;;;5.64;94.05;100498.75;5034471;28;20041;-86
2022/02/15 07:37:19;;;;;;;28.13;16.15;;;;;;;5.79;93.35;100512.22;5050619;28;20068;-87
2022/02/15 07:39:47;;;;;;;31.05;16.17;;;;;;;5.74;93.74;100519.56;5053471;28;20045;-86
2022/02/15 07:42:13;;;;;;;29.85;15.93;;;;;;;5.75;93.31;100514.22;5055333;28;20110;-87
2022/02/15 07:44:42;;;;;;;32.03;17.67;;;;;;;5.67;93.45;100504.47;5054839;28;20068;-87
2022/02/15 07:47:12;;;;;;;31.08;17.08;;;;;;;5.90;92.91;100525.16;5055579;28;20045;-87
2022/02/15 07:49:40;;;;;;;30.75;18.63;;;;;;;5.77;92.58;100514.09;5055629;28;20072;-87
2022/02/15 07:52:31;;;;;;;31.33;17.55;;;;;;;5.97;93.21;100542.69;5058039;28;20076;-87
2022/02/15 07:54:57;;;;;;;33.13;18.40;;;;;;;5.83;92.81;100508.41;5043035;28;20049;-86
2022/02/15 07:57:27;;;;;;;28.95;17.88;;;;;;;5.93;92.89;100520.53;5039006;28;20051;-84
2022/02/15 07:59:55;;;;;;;31.85;17.90;;;;;;;5.93;92.70;100532.69;5038359;28;20088;-85
2022/02/15 08:02:22;;;;;;;33.42;17.90;;;;;;;6.05;92.29;100536.88;5042251;28;20126;-84
2022/02/15 08:04:48;;;;;;;39.20;19.98;;;;;;;6.07;92.29;100541.94;5045292;28;20045;-85
2022/02/15 08:07:18;;;;;;;29.55;18.80;;;;;;;6.08;92.33;100540.97;5045734;28;20128;-85
2022/02/15 08:09:47;;;;;;;33.90;17.95;;;;;;;6.18;91.95;100560.84;5039988;28;20117;-85
2022/02/15 08:12:17;;;;;;;29.85;19.10;;;;;;;6.13;91.59;100557.00;5042345;28;20046;-84
2022/02/15 08:14:44;;;;;;;30.52;17.92;;;;;;;6.15;91.39;100553.28;5052057;28;20458;-82
2022/02/15 08:17:13;;;;;;;36.72;19.33;;;;;;;6.29;91.07;100565.94;5068064;28;20056;-84
2022/02/15 08:19:45;;;;;;;30.00;18.00;;;;;;;6.17;90.80;100559.19;5066329;28;20036;-84
2022/02/15 08:22:12;;;;;;;34.40;18.92;;;;;;;6.11;91.36;100558.91;5065249;28;20080;-86
2022/02/15 08:24:45;;;;;;;29.27;17.35;;;;;;;6.24;89.99;100570.72;5061375;28;20041;-84
2022/02/15 08:27:12;;;;;;;26.30;16.45;;;;;;;6.14;89.25;100554.28;5061201;28;20071;-86
2022/02/15 08:29:38;;;;;;;30.17;16.13;;;;;;;6.25;89.27;100572.34;5059192;28;20049;-85
2022/02/15 08:32:05;;;;;;;31.02;16.48;;;;;;;6.27;88.41;100552.25;5060406;28;20049;-86
2022/02/15 08:34:34;;;;;;;25.27;15.30;;;;;;;6.42;88.51;100583.94;5056497;28;20049;-86
2022/02/15 08:37:03;;;;;;;27.30;16.20;;;;;;;6.47;88.10;100581.75;5039847;28;20436;-85
2022/02/15 08:39:30;;;;;;;24.00;15.18;;;;;;;6.55;87.27;100581.13;5038332;28;20050;-86
2022/02/15 08:42:07;;;;;;;24.83;15.18;;;;;;;6.51;87.92;100588.34;5038012;28;20049;-86
2022/02/15 08:44:35;;;;;;;27.75;15.85;;;;;;;6.64;87.45;100575.09;5036041;28;20419;-88
2022/02/15 08:47:01;;;;;;;29.33;15.30;;;;;;;6.70;86.83;100584.16;5037880;28;20049;-87
2022/02/15 08:49:29;;;;;;;23.77;13.70;;;;;;;6.73;87.28;100582.13;5037535;28;20076;-88
2022/02/15 08:51:57;;;;;;;22.73;13.52;;;;;;;6.62;86.14;100590.00;5038415;28;20049;-87
2022/02/15 08:54:25;;;;;;;23.30;13.43;;;;;;;6.67;85.59;100600.84;5038098;28;20128;-88
2022/02/15 08:56:52;;;;;;;17.92;12.40;;;;;;;6.59;85.85;100598.94;5038515;28;20084;-89
2022/02/15 08:59:18;;;;;;;21.35;13.38;;;;;;;6.60;85.91;100586.75;5040332;28;20081;-88
2022/02/15 09:01:48;;;;;;;22.45;12.48;;;;;;;6.63;85.58;100604.66;5038219;28;20046;-88
2022/02/15 09:04:15;;;;;;;19.85;11.82;;;;;;;6.67;86.31;100600.84;5039332;28;20052;-89
2022/02/15 09:06:42;;;;;;;19.10;11.43;;;;;;;6.53;84.65;100583.84;5037444;28;20049;-89
2022/02/15 09:09:22;;;;;;;18.95;11.15;;;;;;;6.59;84.92;100608.50;5037987;28;20436;-88
2022/02/15 09:11:54;;;;;;;14.80;9.55;;;;;;;6.62;84.39;100616.00;5039541;28;20049;-87
2022/02/15 09:14:24;;;;;;;16.50;11.02;;;;;;;6.55;84.74;100596.72;5038000;28;20061;-88
2022/02/15 09:17:03;;;;;;;19.27;10.57;;;;;;;6.58;84.81;100594.69;5038424;28;20053;-88
2022/02/15 09:19:43;;;;;;;19.60;10.13;;;;;;;6.59;83.74;100585.09;5037403;28;20064;-86
2022/02/15 09:22:17;;;;;;;15.07;10.30;;;;;;;6.59;84.26;100585.94;5038790;28;20049;-89
2022/02/15 09:24:51;;;;;;;14.68;10.00;;;;;;;6.67;84.06;100593.03;5038005;28;20065;-88
2022/02/15 09:27:20;;;;;;;16.65;10.43;;;;;;;6.82;84.21;100612.53;5036899;28;20056;-86
2022/02/15 09:29:49;;;;;;;19.85;10.43;;;;;;;6.70;83.95;100592.78;5037672;28;20065;-87
2022/02/15 09:32:22;;;;;;;15.60;10.43;;;;;;;6.88;83.50;100630.22;5038232;28;20046;-89
2022/02/15 09:34:53;;;;;;;15.57;9.57;;;;;;;6.85;83.66;100616.66;5038605;28;20491;-88
2022/02/15 09:37:20;;;;;;;17.40;11.15;;;;;;;6.75;83.78;100611.41;5039607;28;20045;-88
2022/02/15 09:40:17;;;;;;;19.63;10.85;;;;;;;6.70;83.89;100603.19;5039829;28;20075;-87
2022/02/15 09:42:45;;;;;;;26.30;11.25;;;;;;;6.68;83.31;100620.69;5039535;28;20140;-86
2022/02/15 09:45:12;;;;;;;16.98;11.95;;;;;;;6.72;83.86;100637.69;5039671;28;20495;-88
2022/02/15 09:47:41;;;;;;;25.02;12.30;;;;;;;6.63;84.03;100620.25;5038705;28;20423;-86
2022/02/15 09:50:14;;;;;;;19.13;12.07;;;;;;;6.83;84.08;100649.78;5031595;28;20050;-86
2022/02/15 09:52:51;;;;;;;19.80;11.88;;;;;;;6.76;83.39;100607.03;5051100;28;20049;-87
2022/02/15 09:55:20;;;;;;;16.83;11.57;;;;;;;7.06;82.92;100632.19;5033886;28;20045;-87
2022/02/15 09:57:46;;;;;;;27.67;13.07;;;;;;;7.02;82.60;100626.44;5025812;28;20085;-88
2022/02/15 10:00:15;;;;;;;20.40;14.55;;;;;;;7.28;83.07;100644.97;5024895;28;20041;-87
2022/02/15 10:02:42;;;;;;;19.35;12.75;;;;;;;7.18;81.89;100623.28;5031367;28;20404;-87
2022/02/15 10:05:15;;;;;;;20.30;11.68;;;;;;;7.41;81.52;100649.91;5027101;28;20164;-87
2022/02/15 10:07:45;;;;;;;;;;;;;;;7.37;80.96;100643.34;5021349;28;20801;-88
2022/02/15 10:10:11;;;;;;;14.30;10.10;;;;;;;7.36;80.98;100654.72;5021000;28;19928;-87
2022/02/15 10:12:39;;;;;;;14.95;10.43;;;;;;;7.46;81.20;100663.38;5025182;28;20077;-87
2022/02/15 10:15:10;;;;;;;18.63;10.23;;;;;;;7.37;80.35;100649.38;5024526;28;20049;-87
2022/02/15 10:17:49;;;;;;;15.00;10.77;;;;;;;7.43;80.23;100654.03;5037211;28;20055;-86
2022/02/15 10:20:33;;;;;;;18.27;10.43;;;;;;;7.33;79.97;100658.41;5040292;28;20057;-87
2022/02/15 10:26:21;;;;;;;18.80;10.00;;;;;;;7.58;79.65;100667.47;4983693;28;20068;-87
2022/02/15 10:28:53;;;;;;;19.85;9.32;;;;;;;7.51;78.76;100666.38;5047440;28;20045;-87
2022/02/15 10:31:19;;;;;;;18.17;9.63;;;;;;;7.66;79.22;100676.25;5044183;28;20091;-88
2022/02/15 10:33:48;;;;;;;16.48;9.50;;;;;;;7.58;78.53;100673.50;5034262;28;20420;-87
2022/02/15 10:36:16;;;;;;;14.90;8.15;;;;;;;7.61;77.72;100688.84;5028267;28;20042;-88
2022/02/15 10:38:44;;;;;;;11.98;7.85;;;;;;;7.46;77.79;100658.16;5024090;28;20539;-87
2022/02/15 10:41:14;;;;;;;16.55;7.72;;;;;;;7.58;76.52;100689.13;5028773;28;20060;-88
2022/02/15 10:43:44;;;;;;;12.32;8.00;;;;;;;7.38;76.13;100679.66;5036727;28;20072;-87
2022/02/15 10:46:23;;;;;;;19.55;8.00;;;;;;;7.37;76.78;100685.81;5032893;28;20100;-88
2022/02/15 10:51:40;;;;;;;14.70;7.80;;;;;;;7.46;76.14;100690.22;5021048;28;20053;-87
2022/02/15 10:54:10;;;;;;;15.40;7.78;;;;;;;7.76;76.42;100701.47;5030834;28;20050;-87
2022/02/15 10:56:41;;;;;;;12.15;7.32;;;;;;;7.96;75.39;100701.38;5027928;28;20077;-87
2022/02/15 10:59:08;;;;;;;15.77;7.20;;;;;;;7.90;74.29;100698.47;5031024;28;20497;-87
2022/02/15 11:01:36;;;;;;;11.57;6.72;;;;;;;7.86;73.46;100707.53;5028875;28;20573;-86
2022/02/15 11:04:04;;;;;;;12.05;6.65;;;;;;;7.92;71.87;100692.16;5024001;28;20124;-87
2022/02/15 11:06:33;;;;;;;10.10;7.05;;;;;;;8.19;71.50;100714.09;5031967;28;20069;-88
2022/02/15 11:09:06;;;;;;;13.38;7.80;;;;;;;8.31;70.83;100708.59;5032124;28;20520;-87
2022/02/15 11:11:57;;;;;;;9.98;6.85;;;;;;;8.38;69.00;100697.66;5026208;28;20115;-87
2022/02/15 11:14:26;;;;;;;11.70;6.72;;;;;;;8.31;68.13;100679.91;5034495;28;20037;-88
2022/02/15 11:17:16;;;;;;;10.20;6.30;;;;;;;8.36;69.10;100682.13;5037320;28;20045;-87
2022/02/15 11:20:07;;;;;;;9.65;6.45;;;;;;;8.23;69.32;100682.41;5049300;28;20403;-86
2022/02/15 11:22:56;;;;;;;11.25;6.75;;;;;;;8.04;68.50;100658.94;5032285;28;20054;-87
2022/02/15 11:29:33;;;;;;;14.93;7.03;;;;;;;8.23;68.45;100663.31;4977708;28;20514;-86
2022/02/15 11:36:13;;;;;;;9.20;5.50;;;;;;;7.96;66.97;100641.44;4971896;28;20126;-85
2022/02/15 11:42:31;;;;;;;8.88;5.03;;;;;;;7.96;64.88;100651.84;4971972;28;20130;-85
2022/02/15 11:45:01;;;;;;;6.90;4.72;;;;;;;7.82;64.40;100664.47;4957741;28;20046;-85
2022/02/15 11:48:09;;;;;;;11.05;5.68;;;;;;;8.00;65.23;100644.59;4969711;28;20138;-86
2022/02/15 11:57:22;;;;;;;7.45;4.45;;;;;;;8.78;62.07;100611.28;5010696;28;20129;-85
2022/02/15 12:00:23;;;;;;;8.18;4.90;;;;;;;9.13;61.21;100640.06;5023297;28;20057;-85
2022/02/15 12:03:26;;;;;;;7.18;4.28;;;;;;;9.34;60.15;100628.56;5034239;28;20463;-85